Oney Z — J8B4719 — position and weather

sailwx.info

Track history (hours):
 
Tides and Currents Weather Stations Pressure Air Temp Water Temp Dewpoint Dewpoint Depression Visibility Wind Speed Wind Dir Waves Ship Positions

Oney Z

Last reported at 2017-Feb-16 05:24 UTC. Time now 2017-Feb-22 06:35 UTC.
Position N 36°44' E 014°29'.

Length 79 m; draft 4 m.

Type: Cargo ship. MMSI: 376099000.

Date/timePositionNaut miles runAvg speedWind from/ knotsBaromVisibWave heightAir tempDewpointWater temp
2017-Feb-16 05:24N 36°44' E 014°29'6 7.6
2017-Feb-16 04:34N 36°47' E 014°22'10 7.3
2017-Feb-16 03:12N 36°51' E 014°11'5 7.1
2017-Feb-16 02:33N 36°53' E 014°06'7 6.8
2017-Feb-16 01:33N 36°56' E 013°58'7 7.0
2017-Feb-16 00:33N 36°60' E 013°50'93 5.1
2017-Feb-15 06:13N 38°02' E 012°23'5 7.9
2017-Feb-15 05:33N 38°02' E 012°30'0 0.4
2017-Feb-15 04:22N 38°02' E 012°30'0 0.0
2017-Feb-15 03:25N 38°02' E 012°30'0 0.0
2017-Feb-15 02:25N 38°02' E 012°30'0 0.0
2017-Feb-15 01:28N 38°02' E 012°30'0 0.0
2017-Feb-15 00:28N 38°02' E 012°30'0 0.0
2017-Feb-14 23:25N 38°02' E 012°30'0 0.0
2017-Feb-14 22:31N 38°02' E 012°30'0 0.0
2017-Feb-14 21:31N 38°02' E 012°30'0 0.0
2017-Feb-14 20:31N 38°02' E 012°30'0 0.0
2017-Feb-14 19:31N 38°02' E 012°30'0 0.0
2017-Feb-14 18:04N 38°02' E 012°30'0 0.0
2017-Feb-14 17:19N 38°02' E 012°30'0 0.0
2017-Feb-14 16:22N 38°02' E 012°30'0 0.0
2017-Feb-14 15:22N 38°02' E 012°30'0 0.0
2017-Feb-14 14:10N 38°02' E 012°30'0 0.0
2017-Feb-14 13:19N 38°02' E 012°30'0 0.1
2017-Feb-14 12:22N 38°02' E 012°30'0 0.0
2017-Feb-14 11:28N 38°02' E 012°30'0 0.0
2017-Feb-14 10:28N 38°02' E 012°30'0 0.0
2017-Feb-14 09:13N 38°02' E 012°30'0 0.0
2017-Feb-14 08:31N 38°02' E 012°30'0 0.0
2017-Feb-14 07:28N 38°02' E 012°30'0 0.0
2017-Feb-14 06:31N 38°02' E 012°30'0 0.0
2017-Feb-14 05:28N 38°02' E 012°30'0 0.0
2017-Feb-14 04:19N 38°02' E 012°30'0 0.0
2017-Feb-14 03:31N 38°02' E 012°30'0 0.0
2017-Feb-14 02:31N 38°02' E 012°30'0 0.0
2017-Feb-14 01:19N 38°02' E 012°30'0 0.0
2017-Feb-14 00:22N 38°02' E 012°30'0 0.0
2017-Feb-13 23:22N 38°02' E 012°30'0 0.0
2017-Feb-13 22:25N 38°02' E 012°30'0 0.0
2017-Feb-13 21:25N 38°02' E 012°30'0 0.0
2017-Feb-13 20:28N 38°02' E 012°30'0 0.0
2017-Feb-13 19:28N 38°02' E 012°30'0 0.0
2017-Feb-13 18:28N 38°02' E 012°30'0 0.0
2017-Feb-13 17:28N 38°02' E 012°30'0 0.0
2017-Feb-13 15:28N 38°02' E 012°30'0 0.0
2017-Feb-13 14:19N 38°02' E 012°30'0 0.0
2017-Feb-13 12:31N 38°02' E 012°30'0 0.0
2017-Feb-13 11:31N 38°02' E 012°30'0 0.0
2017-Feb-13 10:22N 38°02' E 012°30'0 0.0
2017-Feb-13 09:19N 38°02' E 012°30'0 0.0
2017-Feb-13 08:22N 38°02' E 012°30'0 0.0
2017-Feb-13 07:22N 38°02' E 012°30'0 0.0
2017-Feb-13 06:28N 38°02' E 012°30'0 0.0
2017-Feb-13 03:31N 38°02' E 012°30'0 0.0
2017-Feb-13 02:28N 38°02' E 012°30'0 0.0
2017-Feb-13 01:31N 38°02' E 012°30'0 0.0
2017-Feb-13 00:31N 38°02' E 012°30'0 0.0
2017-Feb-12 23:31N 38°02' E 012°30'0 0.0
2017-Feb-12 22:31N 38°02' E 012°30'0 0.0
2017-Feb-12 21:22N 38°02' E 012°30'0 0.0
2017-Feb-12 20:22N 38°02' E 012°30'0 0.0
2017-Feb-12 19:25N 38°02' E 012°30'0 0.0
2017-Feb-12 18:25N 38°02' E 012°30'0 0.0
2017-Feb-12 17:25N 38°02' E 012°30'0 0.0
2017-Feb-12 16:28N 38°02' E 012°30'0 0.0
2017-Feb-12 15:28N 38°02' E 012°30'0 0.0
2017-Feb-12 14:16N 38°02' E 012°30'0 0.0
2017-Feb-12 13:28N 38°02' E 012°30'0 0.0
2017-Feb-12 12:31N 38°02' E 012°30'0 0.0
2017-Feb-12 11:31N 38°02' E 012°30'0 0.0
2017-Feb-12 10:28N 38°02' E 012°30'0 0.0
2017-Feb-12 09:31N 38°02' E 012°30'0 0.0
2017-Feb-12 08:22N 38°02' E 012°30'  
2017-Feb-09 23:19N 43°19' E 010°20'4 1.3
2017-Feb-09 20:04N 43°21' E 010°25'0 0.0
2017-Feb-09 19:33N 43°21' E 010°25'0 0.0
2017-Feb-09 18:31N 43°21' E 010°25'0 0.0
2017-Feb-09 16:23N 43°21' E 010°25'0 0.0
2017-Feb-09 15:22N 43°21' E 010°25'0 0.0
2017-Feb-09 10:16N 43°21' E 010°25'0 0.0
2017-Feb-09 07:26N 43°21' E 010°25'0 0.0
2017-Feb-09 06:08N 43°21' E 010°25'0 0.0
2017-Feb-09 05:32N 43°21' E 010°25'0 0.0
2017-Feb-09 04:25N 43°21' E 010°25'0 0.0
2017-Feb-09 02:31N 43°21' E 010°25'0 0.0
2017-Feb-09 01:30N 43°21' E 010°25'4 0.2
2017-Feb-08 09:31N 43°23' E 010°21'7 7.1
2017-Feb-08 08:33N 43°26' E 010°13'7 6.9
2017-Feb-08 07:34N 43°30' E 010°05'7 7.0
2017-Feb-08 06:33N 43°37' E 010°05'7 7.1
2017-Feb-08 05:33N 43°44' E 010°02'7 7.1
2017-Feb-08 04:33N 43°50' E 009°56'7 7.3
2017-Feb-08 03:33N 43°54' E 009°48'7 7.2
2017-Feb-08 02:33N 43°59' E 009°41'7 7.3
2017-Feb-08 01:33N 44°03' E 009°32'24 7.2
2017-Feb-07 22:15N 44°16' E 009°04'5 6.8
2017-Feb-07 21:33N 44°19' E 008°59'6 6.5
2017-Feb-07 20:33N 44°24' E 008°53'1 0.7
2017-Feb-07 19:31N 44°24' E 008°52'0 0.0
2017-Feb-07 18:31N 44°24' E 008°52'0 0.0
2017-Feb-07 17:31N 44°24' E 008°52'0 0.0
2017-Feb-07 16:31N 44°24' E 008°52'0 0.0
2017-Feb-07 15:31N 44°24' E 008°52'0 0.0
2017-Feb-07 14:31N 44°24' E 008°52'0 0.0
2017-Feb-07 13:22N 44°24' E 008°52'0 0.0
2017-Feb-07 12:22N 44°24' E 008°52'0 0.0
2017-Feb-07 11:25N 44°24' E 008°52'0 0.0
2017-Feb-07 10:31N 44°24' E 008°52'0 0.0
2017-Feb-07 09:25N 44°24' E 008°52'0 0.0
2017-Feb-07 08:28N 44°24' E 008°52'0 0.0
2017-Feb-07 07:28N 44°24' E 008°52'0 0.0
2017-Feb-07 06:28N 44°24' E 008°52'0 0.0
2017-Feb-07 05:31N 44°24' E 008°52'0 0.0
2017-Feb-07 04:31N 44°24' E 008°52'0 0.0
2017-Feb-07 03:31N 44°24' E 008°52'0 0.0
2017-Feb-07 02:31N 44°24' E 008°52'0 0.0
2017-Feb-07 01:31N 44°24' E 008°52'0 0.0
2017-Feb-07 00:31N 44°24' E 008°52'0 0.0
2017-Feb-06 23:31N 44°24' E 008°52'0 0.0
2017-Feb-06 22:22N 44°24' E 008°52'0 0.0
2017-Feb-06 21:25N 44°24' E 008°52'0 0.0
2017-Feb-06 20:25N 44°24' E 008°52'0 0.0
2017-Feb-06 19:25N 44°24' E 008°52'0 0.0
2017-Feb-06 18:28N 44°24' E 008°52'0 0.0
2017-Feb-06 17:25N 44°24' E 008°52'0 0.0
2017-Feb-06 16:28N 44°24' E 008°52'0 0.0
2017-Feb-06 15:31N 44°24' E 008°52'0 0.0
2017-Feb-06 14:31N 44°24' E 008°52'0 0.0
2017-Feb-06 13:31N 44°24' E 008°52'0 0.0
2017-Feb-06 12:31N 44°24' E 008°52'0 0.0
2017-Feb-06 11:31N 44°24' E 008°52'0 0.0
2017-Feb-06 10:31N 44°24' E 008°52'0 0.0
2017-Feb-06 09:31N 44°24' E 008°52'0 0.0
2017-Feb-06 08:22N 44°24' E 008°52'0 0.0
2017-Feb-06 07:22N 44°24' E 008°52'0 0.0
2017-Feb-06 06:25N 44°24' E 008°52'0 0.0
2017-Feb-06 05:25N 44°24' E 008°52'  
Track history (hours):
 
Tides and Currents Weather Stations Pressure Air Temp Water Temp Dewpoint Dewpoint Depression Visibility Wind Speed Wind Dir Waves Ship Positions

Oney Z

Last reported at 2017-Feb-16 05:24 UTC. Time now 2017-Feb-22 06:35 UTC.
Position N 36°44' E 014°29'.

Length 79 m; draft 4 m.

Type: Cargo ship. MMSI: 376099000.

Date/timePositionNaut miles runAvg speedWind from/ knotsBaromVisibWave heightAir tempDewpointWater temp
2017-Feb-16 05:24N 36°44' E 014°29'6 7.6
2017-Feb-16 04:34N 36°47' E 014°22'10 7.3
2017-Feb-16 03:12N 36°51' E 014°11'5 7.1
2017-Feb-16 02:33N 36°53' E 014°06'7 6.8
2017-Feb-16 01:33N 36°56' E 013°58'7 7.0
2017-Feb-16 00:33N 36°60' E 013°50'93 5.1
2017-Feb-15 06:13N 38°02' E 012°23'5 7.9
2017-Feb-15 05:33N 38°02' E 012°30'0 0.4
2017-Feb-15 04:22N 38°02' E 012°30'0 0.0
2017-Feb-15 03:25N 38°02' E 012°30'0 0.0
2017-Feb-15 02:25N 38°02' E 012°30'0 0.0
2017-Feb-15 01:28N 38°02' E 012°30'0 0.0
2017-Feb-15 00:28N 38°02' E 012°30'0 0.0
2017-Feb-14 23:25N 38°02' E 012°30'0 0.0
2017-Feb-14 22:31N 38°02' E 012°30'0 0.0
2017-Feb-14 21:31N 38°02' E 012°30'0 0.0
2017-Feb-14 20:31N 38°02' E 012°30'0 0.0
2017-Feb-14 19:31N 38°02' E 012°30'0 0.0
2017-Feb-14 18:04N 38°02' E 012°30'0 0.0
2017-Feb-14 17:19N 38°02' E 012°30'0 0.0
2017-Feb-14 16:22N 38°02' E 012°30'0 0.0
2017-Feb-14 15:22N 38°02' E 012°30'0 0.0
2017-Feb-14 14:10N 38°02' E 012°30'0 0.0
2017-Feb-14 13:19N 38°02' E 012°30'0 0.1
2017-Feb-14 12:22N 38°02' E 012°30'0 0.0
2017-Feb-14 11:28N 38°02' E 012°30'0 0.0
2017-Feb-14 10:28N 38°02' E 012°30'0 0.0
2017-Feb-14 09:13N 38°02' E 012°30'0 0.0
2017-Feb-14 08:31N 38°02' E 012°30'0 0.0
2017-Feb-14 07:28N 38°02' E 012°30'0 0.0
2017-Feb-14 06:31N 38°02' E 012°30'0 0.0
2017-Feb-14 05:28N 38°02' E 012°30'0 0.0
2017-Feb-14 04:19N 38°02' E 012°30'0 0.0
2017-Feb-14 03:31N 38°02' E 012°30'0 0.0
2017-Feb-14 02:31N 38°02' E 012°30'0 0.0
2017-Feb-14 01:19N 38°02' E 012°30'0 0.0
2017-Feb-14 00:22N 38°02' E 012°30'0 0.0
2017-Feb-13 23:22N 38°02' E 012°30'0 0.0
2017-Feb-13 22:25N 38°02' E 012°30'0 0.0
2017-Feb-13 21:25N 38°02' E 012°30'0 0.0
2017-Feb-13 20:28N 38°02' E 012°30'0 0.0
2017-Feb-13 19:28N 38°02' E 012°30'0 0.0
2017-Feb-13 18:28N 38°02' E 012°30'0 0.0
2017-Feb-13 17:28N 38°02' E 012°30'0 0.0
2017-Feb-13 15:28N 38°02' E 012°30'0 0.0
2017-Feb-13 14:19N 38°02' E 012°30'0 0.0
2017-Feb-13 12:31N 38°02' E 012°30'0 0.0
2017-Feb-13 11:31N 38°02' E 012°30'0 0.0
2017-Feb-13 10:22N 38°02' E 012°30'0 0.0
2017-Feb-13 09:19N 38°02' E 012°30'0 0.0
2017-Feb-13 08:22N 38°02' E 012°30'0 0.0
2017-Feb-13 07:22N 38°02' E 012°30'0 0.0
2017-Feb-13 06:28N 38°02' E 012°30'0 0.0
2017-Feb-13 03:31N 38°02' E 012°30'0 0.0
2017-Feb-13 02:28N 38°02' E 012°30'0 0.0
2017-Feb-13 01:31N 38°02' E 012°30'0 0.0
2017-Feb-13 00:31N 38°02' E 012°30'0 0.0
2017-Feb-12 23:31N 38°02' E 012°30'0 0.0
2017-Feb-12 22:31N 38°02' E 012°30'0 0.0
2017-Feb-12 21:22N 38°02' E 012°30'0 0.0
2017-Feb-12 20:22N 38°02' E 012°30'0 0.0
2017-Feb-12 19:25N 38°02' E 012°30'0 0.0
2017-Feb-12 18:25N 38°02' E 012°30'0 0.0
2017-Feb-12 17:25N 38°02' E 012°30'0 0.0
2017-Feb-12 16:28N 38°02' E 012°30'0 0.0
2017-Feb-12 15:28N 38°02' E 012°30'0 0.0
2017-Feb-12 14:16N 38°02' E 012°30'0 0.0
2017-Feb-12 13:28N 38°02' E 012°30'0 0.0
2017-Feb-12 12:31N 38°02' E 012°30'0 0.0
2017-Feb-12 11:31N 38°02' E 012°30'0 0.0
2017-Feb-12 10:28N 38°02' E 012°30'0 0.0
2017-Feb-12 09:31N 38°02' E 012°30'0 0.0
2017-Feb-12 08:22N 38°02' E 012°30'  
2017-Feb-09 23:19N 43°19' E 010°20'4 1.3
2017-Feb-09 20:04N 43°21' E 010°25'0 0.0
2017-Feb-09 19:33N 43°21' E 010°25'0 0.0
2017-Feb-09 18:31N 43°21' E 010°25'0 0.0
2017-Feb-09 16:23N 43°21' E 010°25'0 0.0
2017-Feb-09 15:22N 43°21' E 010°25'0 0.0
2017-Feb-09 10:16N 43°21' E 010°25'0 0.0
2017-Feb-09 07:26N 43°21' E 010°25'0 0.0
2017-Feb-09 06:08N 43°21' E 010°25'0 0.0
2017-Feb-09 05:32N 43°21' E 010°25'0 0.0
2017-Feb-09 04:25N 43°21' E 010°25'0 0.0
2017-Feb-09 02:31N 43°21' E 010°25'0 0.0
2017-Feb-09 01:30N 43°21' E 010°25'4 0.2
2017-Feb-08 09:31N 43°23' E 010°21'7 7.1
2017-Feb-08 08:33N 43°26' E 010°13'7 6.9
2017-Feb-08 07:34N 43°30' E 010°05'7 7.0
2017-Feb-08 06:33N 43°37' E 010°05'7 7.1
2017-Feb-08 05:33N 43°44' E 010°02'7 7.1
2017-Feb-08 04:33N 43°50' E 009°56'7 7.3
2017-Feb-08 03:33N 43°54' E 009°48'7 7.2
2017-Feb-08 02:33N 43°59' E 009°41'7 7.3
2017-Feb-08 01:33N 44°03' E 009°32'24 7.2
2017-Feb-07 22:15N 44°16' E 009°04'5 6.8
2017-Feb-07 21:33N 44°19' E 008°59'6 6.5
2017-Feb-07 20:33N 44°24' E 008°53'1 0.7
2017-Feb-07 19:31N 44°24' E 008°52'0 0.0
2017-Feb-07 18:31N 44°24' E 008°52'0 0.0
2017-Feb-07 17:31N 44°24' E 008°52'0 0.0
2017-Feb-07 16:31N 44°24' E 008°52'0 0.0
2017-Feb-07 15:31N 44°24' E 008°52'0 0.0
2017-Feb-07 14:31N 44°24' E 008°52'0 0.0
2017-Feb-07 13:22N 44°24' E 008°52'0 0.0
2017-Feb-07 12:22N 44°24' E 008°52'0 0.0
2017-Feb-07 11:25N 44°24' E 008°52'0 0.0
2017-Feb-07 10:31N 44°24' E 008°52'0 0.0
2017-Feb-07 09:25N 44°24' E 008°52'0 0.0
2017-Feb-07 08:28N 44°24' E 008°52'0 0.0
2017-Feb-07 07:28N 44°24' E 008°52'0 0.0
2017-Feb-07 06:28N 44°24' E 008°52'0 0.0
2017-Feb-07 05:31N 44°24' E 008°52'0 0.0
2017-Feb-07 04:31N 44°24' E 008°52'0 0.0
2017-Feb-07 03:31N 44°24' E 008°52'0 0.0
2017-Feb-07 02:31N 44°24' E 008°52'0 0.0
2017-Feb-07 01:31N 44°24' E 008°52'0 0.0
2017-Feb-07 00:31N 44°24' E 008°52'0 0.0
2017-Feb-06 23:31N 44°24' E 008°52'0 0.0
2017-Feb-06 22:22N 44°24' E 008°52'0 0.0
2017-Feb-06 21:25N 44°24' E 008°52'0 0.0
2017-Feb-06 20:25N 44°24' E 008°52'0 0.0
2017-Feb-06 19:25N 44°24' E 008°52'0 0.0
2017-Feb-06 18:28N 44°24' E 008°52'0 0.0
2017-Feb-06 17:25N 44°24' E 008°52'0 0.0
2017-Feb-06 16:28N 44°24' E 008°52'0 0.0
2017-Feb-06 15:31N 44°24' E 008°52'0 0.0
2017-Feb-06 14:31N 44°24' E 008°52'0 0.0
2017-Feb-06 13:31N 44°24' E 008°52'0 0.0
2017-Feb-06 12:31N 44°24' E 008°52'0 0.0
2017-Feb-06 11:31N 44°24' E 008°52'0 0.0
2017-Feb-06 10:31N 44°24' E 008°52'0 0.0
2017-Feb-06 09:31N 44°24' E 008°52'0 0.0
2017-Feb-06 08:22N 44°24' E 008°52'0 0.0
2017-Feb-06 07:22N 44°24' E 008°52'0 0.0
2017-Feb-06 06:25N 44°24' E 008°52'0 0.0
2017-Feb-06 05:25N 44°24' E 008°52'  

Dump ship's entire track history